Latest Weather Observations for Geraldton Airport

IDW60801

Issued at 2:04 pm WST Wednesday 22 February 2017 (issued every 30 minutes, with the page automatically refreshed every 10 minutes)

About weather observations | Map of weather stations | Latest weather observations for WA | Other Formats
Station Details ID: 008315 Name: GERALDTON AIRPORT Lat: -28.80 Lon: 114.70 Height: 29.7 m
Data from the previous 72 hours. | See also: Recent months at Geraldton Airport
Date/Time
WST
Temp
°C
App
Temp
°C
Dew
Point
°C
Rel
Hum
%
Delta-T
°C
Wind Press
QNH
hPa
Press
MSL
hPa
Rain since
9am
mm
Dir  Spd
km/h
Gust
km/h
Spd
kts
Gust
kts
22/02:00pm 26.0 20.0 10.7 38 8.6 SSW 33 44 18 24 1017.0 - 0.0
22/01:30pm 27.4 21.6 9.3 32 10.0 S 30 39 16 21 1017.2 - 0.0
22/01:00pm 29.4 24.0 2.4 17 13.4 SE 20 26 11 14 1017.6 - 0.0
22/12:30pm 27.6 23.1 4.0 22 11.9 SSE 17 30 9 16 1017.8 - 0.0
22/12:00pm 26.7 22.4 3.3 22 11.6 E 15 22 8 12 1018.3 1018.1 0.0
22/11:30am 25.3 20.4 5.3 27 10.2 SE 20 41 11 22 1018.7 - 0.0
22/11:00am 24.2 19.6 5.7 30 9.4 ESE 19 32 10 17 1019.1 - 0.0
22/10:30am 24.7 20.0 5.1 28 9.9 ESE 19 28 10 15 1019.4 - 0.0
22/10:00am 23.8 18.2 5.6 31 9.2 SE 24 33 13 18 1019.7 - 0.0
22/09:30am 23.0 17.7 6.7 35 8.4 SE 24 35 13 19 1019.9 - 0.0
22/09:00am 21.0 15.0 6.9 40 7.2 SE 28 37 15 20 1020.0 1019.9 0.0
22/08:30am 20.0 13.9 6.6 41 6.7 SE 28 37 15 20 1019.9 - 0.0
22/08:00am 19.1 12.2 6.5 43 6.3 SE 32 43 17 23 1019.8 - 0.0
22/07:30am 17.9 12.4 9.1 56 4.6 SE 28 33 15 18 1019.7 - 0.0
22/07:00am 16.6 12.7 9.3 62 3.8 SE 20 28 11 15 1019.6 - 0.0
22/06:30am 13.7 10.3 9.0 73 2.4 SE 17 19 9 10 1019.2 - 0.0
22/06:00am 13.1 11.2 9.0 76 2.1 SE 9 13 5 7 1019.1 1019.0 0.0
22/05:30am 13.8 11.1 8.9 72 2.5 SSE 13 17 7 9 1018.7 - 0.0
22/05:00am 14.1 11.4 8.9 71 2.6 SSE 13 17 7 9 1018.5 - 0.0
22/04:30am 15.0 11.5 8.7 66 3.2 SE 17 20 9 11 1018.1 - 0.0
22/04:00am 14.6 11.1 8.7 67 3.0 SSE 17 19 9 10 1017.8 - 0.0
22/03:30am 15.2 10.3 8.5 64 3.4 SSE 24 28 13 15 1017.5 - 0.0
22/03:00am 14.9 11.1 8.9 67 3.1 SE 19 24 10 13 1017.5 1017.3 0.0
22/02:30am 14.7 10.9 9.0 68 2.9 SE 19 20 10 11 1017.6 - 0.0
22/02:00am 14.5 11.1 9.0 69 2.8 SE 17 20 9 11 1017.7 - 0.0
22/01:30am 15.2 11.2 9.0 66 3.2 SSE 20 28 11 15 1017.8 - 0.0
22/01:00am 16.2 12.1 8.8 61 3.8 SE 20 28 11 15 1018.0 - 0.0
22/12:30am 16.1 12.7 9.1 63 3.6 SE 17 20 9 11 1018.2 - 0.0
22/12:00am 16.7 12.8 8.8 59 4.1 SE 19 24 10 13 1018.2 1018.0 0.0
 
Date/Time
WST
Temp
°C
App
Temp
°C
Dew
Point
°C
Rel
Hum
%
Delta-T
°C
Wind Press
QNH
hPa
Press
MSL
hPa
Rain since
9am
mm
Dir  Spd
km/h
Gust
km/h
Spd
kts
Gust
kts
21/11:30pm 16.4 13.0 9.0 61 3.8 SE 17 20 9 11 1018.3 - 0.0
21/11:00pm 16.7 13.4 9.4 62 3.8 SE 17 20 9 11 1018.5 - 0.0
21/10:30pm 17.8 14.7 10.3 61 4.0 SE 17 20 9 11 1018.7 - 0.0
21/10:00pm 18.5 15.1 10.5 59 4.3 SSE 19 26 10 14 1018.6 - 0.0
21/09:30pm 18.9 15.2 10.2 57 4.7 S 20 26 11 14 1018.5 - 0.0
21/09:00pm 18.9 15.2 10.2 57 4.7 S 20 28 11 15 1018.4 1018.3 0.0
21/08:30pm 19.2 15.1 10.0 55 4.9 S 22 30 12 16 1018.2 - 0.0
21/08:00pm 19.5 15.0 10.0 54 5.1 S 24 32 13 17 1017.9 - 0.0
21/07:30pm 19.8 15.0 10.4 54 5.1 S 26 33 14 18 1017.5 - 0.0
21/07:00pm 20.5 15.2 11.2 55 5.1 S 30 41 16 22 1017.1 - 0.0
21/06:30pm 21.0 15.3 9.9 49 6.0 S 30 41 16 22 1016.8 - 0.0
21/06:00pm 21.6 16.2 10.9 50 5.9 S 30 41 16 22 1016.5 1016.3 0.0
21/05:30pm 22.0 16.5 11.7 52 5.8 S 32 46 17 25 1016.1 - 0.0
21/05:00pm 22.9 17.5 12.1 50 6.1 S 32 43 17 23 1015.8 - 0.0
21/04:30pm 23.2 17.9 12.5 51 6.1 S 32 41 17 22 1015.6 - 0.0
21/04:00pm 23.7 18.9 12.8 50 6.3 S 30 41 16 22 1015.3 - 0.0
21/03:30pm 24.0 18.4 11.4 45 7.1 S 32 43 17 23 1015.3 - 0.0
21/03:00pm 23.4 18.7 11.9 48 6.5 S 28 39 15 21 1015.5 1015.3 0.0
21/02:30pm 23.9 19.1 12.8 49 6.4 SSW 30 43 16 23 1015.3 - 0.0
21/02:00pm 23.9 18.6 13.0 50 6.3 SSW 33 46 18 25 1015.6 - 0.0
21/01:30pm 24.9 19.6 12.5 46 7.1 SSW 32 44 17 24 1015.7 - 0.0
21/01:06pm 24.6 20.1 12.7 47 6.9 SSW 28 46 15 25 1015.9 - 0.0
21/01:00pm 24.5 19.5 12.1 46 7.1 SSW 30 41 16 22 1015.9 - 0.0
21/12:30pm 24.3 19.0 11.3 44 7.3 SSW 30 43 16 23 1016.1 - 0.0
21/12:00pm 24.3 18.9 10.9 43 7.5 S 30 43 16 23 1016.4 1016.2 0.0
21/11:46am 23.1 18.0 10.6 45 6.9 SSW 28 46 15 25 1016.3 - 0.0
21/11:30am 24.1 19.1 11.1 44 7.3 SSW 28 43 15 23 1016.3 - 0.0
21/11:00am 23.2 18.1 10.7 45 6.9 SSW 28 41 15 22 1016.5 - 0.0
21/10:30am 22.8 17.9 11.3 48 6.4 S 28 35 15 19 1016.5 - 0.0
21/10:00am 23.3 17.8 10.4 44 7.1 SW 30 39 16 21 1016.5 - 0.0
21/09:30am 22.2 17.2 11.0 49 6.2 SSW 28 39 15 21 1016.4 - 0.0
21/09:00am 22.4 18.4 11.9 51 5.9 SSW 24 32 13 17 1016.3 1016.1 0.0
21/08:30am 22.1 17.4 10.5 47 6.4 S 26 33 14 18 1016.2 - 0.0
21/08:00am 21.2 17.1 11.5 54 5.4 SSW 24 33 13 18 1015.7 - 0.0
21/07:30am 21.0 16.7 10.8 52 5.6 SSW 24 33 13 18 1015.4 - 0.0
21/07:00am 20.2 16.6 10.7 54 5.2 SSW 20 28 11 15 1015.2 - 0.0
21/06:30am 19.4 15.9 10.8 57 4.7 SSW 20 26 11 14 1014.7 - 0.0
21/06:00am 19.9 15.0 11.4 58 4.7 SSW 28 39 15 21 1014.4 1014.2 0.0
21/05:30am 20.2 16.5 12.8 62 4.2 SSW 24 33 13 18 1013.9 - 0.0
21/05:00am 20.4 16.9 13.4 64 4.0 SSW 24 32 13 17 1013.5 - 0.0
21/04:30am 20.7 17.4 14.0 65 3.9 SSW 24 35 13 19 1013.4 - 0.0
21/04:00am 20.8 17.8 14.8 68 3.5 SSW 24 33 13 18 1013.2 - 0.0
21/03:30am 20.5 18.6 15.8 74 2.8 SSW 20 26 11 14 1013.0 - 0.0
21/03:00am 21.0 19.4 16.0 73 3.0 SSW 19 30 10 16 1013.1 1012.9 0.0
21/02:30am 20.6 20.2 15.2 71 3.2 S 11 17 6 9 1013.2 - 0.0
21/02:00am 20.9 20.0 14.9 68 3.5 S 13 19 7 10 1013.4 - 0.0
21/01:30am 20.4 19.9 14.8 70 3.3 S 11 13 6 7 1013.8 - 0.0
21/01:00am 19.9 19.6 14.5 71 3.1 S 9 13 5 7 1013.7 - 0.0
21/12:30am 20.8 19.4 14.5 67 3.7 S 15 22 8 12 1013.8 - 0.0
21/12:00am 21.4 19.0 14.4 64 4.1 S 20 28 11 15 1013.9 1013.7 0.0
 
Date/Time
WST
Temp
°C
App
Temp
°C
Dew
Point
°C
Rel
Hum
%
Delta-T
°C
Wind Press
QNH
hPa
Press
MSL
hPa
Rain since
9am
mm
Dir  Spd
km/h
Gust
km/h
Spd
kts
Gust
kts
20/11:30pm 21.4 18.3 14.4 64 4.1 S 24 35 13 19 1013.9 - 0.0
20/11:00pm 21.5 18.6 15.1 67 3.8 S 24 32 13 17 1014.0 - 0.0
20/10:30pm 21.7 18.8 15.2 66 3.9 S 24 33 13 18 1014.0 - 0.0
20/10:00pm 21.8 19.5 15.6 68 3.7 S 22 30 12 16 1014.1 - 0.0
20/09:30pm 21.9 20.3 15.9 68 3.6 S 19 26 10 14 1013.9 - 0.0
20/09:00pm 21.8 19.7 16.2 70 3.4 S 22 28 12 15 1013.9 1013.7 0.0
20/08:30pm 22.0 19.8 16.8 72 3.2 S 24 35 13 19 1013.9 - 0.0
20/08:00pm 22.0 20.7 17.3 74 2.9 S 20 30 11 16 1013.2 - 0.0
20/07:30pm 22.2 20.9 17.3 74 3.0 S 20 32 11 17 1012.8 - 0.0
20/07:00pm 22.5 21.4 17.7 74 3.0 S 20 28 11 15 1012.4 - 0.0
20/06:30pm 23.0 21.6 17.9 73 3.2 S 22 28 12 15 1011.9 - 0.0
20/06:00pm 22.9 20.7 17.8 73 3.2 S 26 33 14 18 1011.4 1011.2 0.0
20/05:30pm 23.8 21.3 18.1 70 3.6 S 28 35 15 19 1011.2 - 0.0
20/05:00pm 24.1 22.4 18.2 69 3.7 S 24 32 13 17 1011.2 - 0.0
20/04:30pm 23.2 22.0 19.3 79 2.5 S 24 32 13 17 1010.9 - 0.0
20/04:00pm 24.5 22.1 17.4 64 4.4 S 26 35 14 19 1011.1 - 0.0
20/03:30pm 25.3 22.0 16.9 59 5.2 S 30 43 16 23 1011.2 - 0.0
20/03:00pm 24.9 21.8 17.4 63 4.7 S 30 39 16 21 1011.4 1011.2 0.0
20/02:30pm 25.5 22.2 17.9 63 4.8 S 32 37 17 20 1011.5 - 0.0
20/02:00pm 25.9 23.3 17.7 60 5.2 S 28 39 15 21 1011.7 - 0.0
20/01:30pm 25.8 22.8 18.6 64 4.6 S 32 39 17 21 1011.9 - 0.0
20/01:00pm 25.9 23.3 18.7 64 4.6 SSW 30 39 16 21 1012.0 - 0.0
20/12:30pm 25.8 22.7 18.3 63 4.8 SSW 32 39 17 21 1012.0 - 0.0
20/12:00pm 27.7 25.5 18.7 58 5.8 SSW 28 39 15 21 1012.3 1012.1 0.0
20/11:30am 28.8 28.2 17.6 50 7.1 SSE 17 28 9 15 1012.6 - 0.0
20/11:00am 27.1 25.7 18.7 60 5.4 SE 24 33 13 18 1013.1 - 0.0
20/10:30am 25.6 23.4 18.8 66 4.3 S 28 35 15 19 1013.5 - 0.0
20/10:00am 24.4 22.0 19.1 72 3.4 S 30 39 16 21 1013.9 - 0.0
20/09:30am 24.2 21.4 19.0 72 3.3 S 32 41 17 22 1013.8 - 0.0
20/09:00am 24.2 22.5 19.9 77 2.8 S 28 35 15 19 1013.4 1013.2 0.0
20/08:30am 24.0 24.1 20.3 80 2.4 SSW 20 28 11 15 1013.7 - 0.0
20/08:00am 24.0 24.2 20.5 81 2.3 S 20 26 11 14 1013.6 - 0.0
20/07:30am 23.9 24.4 20.9 83 2.0 S 19 24 10 13 1013.2 - 0.0
20/07:00am 23.9 26.1 21.2 85 1.8 S 11 13 6 7 1013.0 - 0.0
20/06:30am 23.4 25.6 21.1 87 1.5 SSE 11 15 6 8 1012.5 - 0.0
20/06:00am 23.4 25.2 21.1 87 1.5 SSE 13 15 7 8 1012.2 1012.0 0.0
20/05:30am 23.3 26.6 21.4 89 1.3 SSW 6 11 3 6 1012.5 - 0.0
20/05:00am 23.1 25.8 21.4 90 1.1 S 9 13 5 7 1011.8 - 0.0
20/04:48am 22.9 24.8 21.4 91 1.0 S 13 15 7 8 1011.7 - 0.0
20/04:36am 22.7 25.4 21.3 92 0.9 S 9 15 5 8 1011.6 - 0.0
20/04:30am 22.7 25.3 21.2 91 1.0 S 9 11 5 6 1011.7 - 0.0
20/04:16am 22.6 25.6 21.2 92 0.9 SSW 7 11 4 6 1011.7 - 0.0
20/04:00am 22.6 24.0 21.1 91 1.0 S 15 17 8 9 1011.4 - 0.0
20/03:30am 22.6 25.0 20.9 90 1.1 S 9 11 5 6 1011.6 - 0.0
20/03:01am 23.0 25.2 21.2 89 1.2 S 11 13 6 7 1011.7 - 0.0
20/03:00am 23.1 25.4 21.3 90 1.2 S 11 13 6 7 1011.7 1011.5 0.0
20/02:30am 23.5 26.4 21.7 90 1.2 SSE 9 13 5 7 1012.2 - 0.0
20/02:07am 23.5 26.0 21.7 90 1.2 SSE 11 15 6 8 1012.3 - 0.0
20/02:00am 23.4 25.4 21.6 90 1.2 S 13 17 7 9 1012.3 - 0.0
20/01:30am 23.5 25.9 21.6 89 1.3 S 11 15 6 8 1012.4 - 0.0
20/01:00am 23.5 25.9 21.6 89 1.3 S 11 13 6 7 1012.6 - 0.0
20/12:30am 23.7 26.5 21.6 88 1.4 S 9 13 5 7 1012.9 - 0.0
20/12:00am 23.9 26.4 21.7 87 1.5 SW 11 15 6 8 1013.1 1012.9 0.0
 
Date/Time
WST
Temp
°C
App
Temp
°C
Dew
Point
°C
Rel
Hum
%
Delta-T
°C
Wind Press
QNH
hPa
Press
MSL
hPa
Rain since
9am
mm
Dir  Spd
km/h
Gust
km/h
Spd
kts
Gust
kts
19/11:30pm 24.2 26.9 22.1 88 1.4 SSW 11 13 6 7 1013.3 - 0.0
19/11:00pm 24.5 27.7 22.4 88 1.4 S 9 15 5 8 1013.4 - 0.0
19/10:30pm 24.8 28.1 22.5 87 1.5 S 9 11 5 6 1013.6 - 0.0
19/10:00pm 24.9 28.0 22.8 88 1.4 S 11 17 6 9 1013.6 - 0.0
19/09:30pm 25.2 28.7 22.9 87 1.6 S 9 11 5 6 1013.9 - 0.0
19/09:00pm 25.4 29.0 23.1 87 1.6 S 9 11 5 6 1013.8 1013.6 0.0
19/08:30pm 25.7 29.2 22.9 84 1.9 SW 9 13 5 7 1013.4 - 0.0
19/08:00pm 26.1 29.0 22.5 80 2.4 WSW 11 13 6 7 1013.2 - 0.0
19/07:30pm 26.7 28.4 21.7 74 3.3 WSW 15 20 8 11 1012.8 - 0.0
19/07:00pm 27.6 29.0 21.1 67 4.3 WSW 15 20 8 11 1012.4 - 0.0
19/06:30pm 29.2 30.5 20.8 60 5.6 W 15 19 8 10 1012.4 - 0.0
19/06:00pm 30.1 32.4 20.6 56 6.3 WSW 9 13 5 7 1012.8 1012.6 0.0
19/05:30pm 29.9 30.8 20.9 58 6.0 W 17 20 9 11 1012.4 - 0.0
19/05:00pm 30.1 30.7 21.1 58 6.0 WSW 19 26 10 14 1012.1 - 0.0
19/04:30pm 31.0 30.1 20.7 54 6.9 W 26 32 14 17 1011.5 - 0.0
19/04:00pm 32.2 31.3 20.6 50 7.7 WSW 26 32 14 17 1011.4 - 0.0
19/03:30pm 33.2 31.6 20.1 46 8.7 WSW 28 32 15 17 1011.7 - 0.0
19/03:00pm 33.7 32.6 19.5 43 9.4 W 24 32 13 17 1011.7 1011.5 0.0
19/02:30pm 33.9 32.4 18.6 40 10.0 W 24 32 13 17 1012.0 - 0.0

Other Formats:

Comma delimited format used in spreadsheet applications
http://www.bom.gov.au/fwo/IDW60801/IDW60801.94403.axf

JavaScript Object Notation format (JSON) in row-major order
http://www.bom.gov.au/fwo/IDW60801/IDW60801.94403.json